EST,Max TemperatureF,Mean TemperatureF,Min TemperatureF,Max Dew PointF,MeanDew PointF,Min DewpointF,Max Humidity, Mean Humidity, Min Humidity, Max Sea Level PressureIn, Mean Sea Level PressureIn, Min Sea Level PressureIn, Max VisibilityMiles, Mean VisibilityMiles, Min VisibilityMiles, Max Wind SpeedMPH, Mean Wind SpeedMPH, Max Gust SpeedMPH,PrecipitationIn, CloudCover, Events, WindDirDegrees
2011-11-1,59,46,32,37,35,32,100,77,36,30.22,30.19,30.15,10,7,2,13,4,18,0.00,0,,198
2011-11-2,64,55,46,37,35,34,66,49,32,30.16,30.10,30.00,10,10,10,17,8,26,0.00,0,,190
2011-11-3,55,48,41,46,40,34,100,76,51,30.15,30.04,29.99,10,10,5,14,6,20,0.00,5,,36
2011-11-4,50,41,32,37,33,30,100,76,50,30.32,30.25,30.16,10,9,4,9,3,,0.00,1,,25
2011-11-5,53,42,32,36,30,23,100,70,33,30.35,30.30,30.21,10,10,5,13,5,18,0.00,0,,142
2011-11-6,62,50,37,41,35,30,87,61,45,30.20,30.16,30.07,10,10,10,20,9,25,0.00,0,,172
2011-11-7,60,56,51,50,44,41,88,66,55,30.23,30.19,30.14,10,10,7,12,6,16,0.00,8,Rain,225
2011-11-8,64,55,46,55,50,46,100,83,59,30.21,30.08,29.97,10,6,0,12,4,17,0.00,7,Fog-Rain,131
2011-11-9,62,52,39,55,48,34,100,80,52,29.96,29.75,29.54,10,9,2,28,10,43,0.00,8,Rain,180
2011-11-10,42,37,32,36,33,28,100,88,61,29.90,29.86,29.83,10,9,2,20,10,30,0.00,6,Rain-Snow,241
2011-11-11,41,36,32,34,31,27,100,83,61,29.95,29.89,29.84,10,10,7,16,9,21,0.00,6,Snow,244
2011-11-12,60,46,32,36,33,28,87,62,34,29.84,29.80,29.74,10,10,10,18,8,24,0.00,0,,201
2011-11-13,62,56,51,50,42,32,68,58,47,29.74,29.56,29.44,10,10,10,25,16,32,0.00,6,,194
2011-11-14,55,48,41,43,38,32,100,72,51,29.68,29.62,29.55,10,9,2,16,6,26,0.00,3,Rain,216
2011-11-15,57,47,37,46,42,34,100,81,50,29.81,29.76,29.70,10,8,0,13,5,,0.00,0,Fog,197
2011-11-16,46,38,30,45,30,21,100,70,39,30.05,29.91,29.78,10,9,3,18,8,25,0.00,0,,275
2011-11-17,35,30,26,23,22,18,86,70,55,30.18,30.05,29.99,10,10,2,23,8,31,0.00,4,Snow,250
2011-11-18,46,36,26,21,17,12,80,52,25,30.23,30.15,30.00,10,10,10,22,8,31,0.00,1,,198
2011-11-19,50,44,37,41,29,21,76,57,42,30.00,29.94,29.80,10,10,10,17,11,25,0.00,6,,192
2011-11-20,57,46,35,50,37,30,81,70,57,30.31,30.09,29.80,10,10,10,18,11,25,0.00,7,,316
2011-11-21,42,36,30,32,30,28,93,78,61,30.36,30.31,30.26,10,10,10,8,1,,0.00,1,,77
2011-11-22,37,34,30,36,31,28,100,90,81,30.28,30.05,29.79,10,6,2,14,6,20,0.00,4,Rain,56
2011-11-23,50,41,32,36,33,32,100,81,50,30.18,30.07,29.82,10,9,3,13,7,18,0.00,2,Rain,292
2011-11-24,44,38,33,37,36,34,100,91,76,30.21,30.16,30.10,7,4,2,14,7,21,0.00,5,,225
2011-11-25,60,50,39,39,36,32,87,63,34,30.08,29.99,29.92,10,9,5,17,9,28,0.00,0,,205
2011-11-26,60,53,46,52,42,36,88,66,58,30.00,29.94,29.84,10,10,7,16,9,28,0.00,3,,187
2011-11-27,53,44,35,54,45,34,100,93,87,30.03,29.83,29.72,10,8,2,15,11,22,0.00,8,Rain,285
2011-11-28,37,34,32,36,32,30,100,89,81,30.13,30.06,29.96,10,9,3,8,4,,0.00,8,Rain,25
2011-11-29,37,34,32,36,34,32,100,95,87,29.92,29.78,29.63,10,5,1,20,10,36,0.00,8,Rain-Snow,14
2011-11-30,35,32,28,32,28,25,100,87,75,30.10,29.90,29.68,10,8,0,14,9,21,0.00,2,Snow,279